Terminal Aerodrome Forecast
Issued by NWS Wilmington, OH

Current Version | Previous Version | Text Only | Print | Product List | Glossary Off
Versions: 1 2 3 4 5 6 7 8 9 10 11 12

262
FTUS41 KILN 041731
TAFILN
TAF
KILN 041731Z 0418/0518 29009KT P6SM VCSH OVC025
     FM042300 29007KT P6SM SCT028
     FM050100 29004KT P6SM SKC
     FM051300 23008KT P6SM BKN150=

USA.gov is the U.S. government's official web portal to all federal, state and local government web resources and services.